Time;durP1;ratioP1;P1;durP2;ratioP2;P2;SDS_P1;SDS_P2;PMS_P1;PMS_P2;Temp;Humidity;BMP_temperature;BMP_pressure;BME280_temperature;BME280_humidity;BME280_pressure;Samples;Min_cycle;Max_cycle;Signal;HPM_P1;HPM_P2
2022/07/18 00:00:21;;;;;;;10.98;6.05;;;;;;;18.87;67.99;102348.34;4986521;28;20026;-77
2022/07/18 00:02:46;;;;;;;11.70;6.32;;;;;;;18.85;68.58;102350.44;4970358;28;20030;-78
2022/07/18 00:05:12;;;;;;;11.88;6.30;;;;;;;18.82;68.11;102348.09;4972177;28;20471;-77
2022/07/18 00:07:37;;;;;;;11.25;6.50;;;;;;;18.81;68.02;102340.97;4972002;28;20101;-77
2022/07/18 00:10:03;;;;;;;11.43;6.47;;;;;;;18.83;67.81;102347.09;4971998;28;20118;-76
2022/07/18 00:12:28;;;;;;;9.68;6.13;;;;;;;18.86;68.02;102343.94;4970741;28;20073;-78
2022/07/18 00:14:54;;;;;;;11.13;6.13;;;;;;;18.86;67.62;102341.22;4971727;28;20094;-78
2022/07/18 00:17:19;;;;;;;13.60;6.50;;;;;;;18.86;67.59;102344.78;4971410;28;20543;-77
2022/07/18 00:19:45;;;;;;;11.60;6.53;;;;;;;18.86;67.39;102335.75;4971749;28;20023;-78
2022/07/18 00:22:10;;;;;;;11.20;6.13;;;;;;;18.86;67.52;102338.50;4971707;28;20403;-78
2022/07/18 00:24:37;;;;;;;11.38;6.15;;;;;;;18.86;67.05;102344.78;4971488;28;20664;-77
2022/07/18 00:27:04;;;;;;;17.13;6.70;;;;;;;18.82;67.18;102339.91;4971548;28;20136;-77
2022/07/18 00:29:30;;;;;;;18.90;7.05;;;;;;;18.77;67.17;102331.50;4971908;28;20458;-78
2022/07/18 00:31:55;;;;;;;11.88;6.90;;;;;;;18.72;67.30;102336.69;4971488;28;20030;-77
2022/07/18 00:34:20;;;;;;;13.75;6.65;;;;;;;18.71;67.58;102332.28;4971598;28;20046;-76
2022/07/18 00:36:46;;;;;;;14.73;6.88;;;;;;;18.68;67.28;102332.69;4971495;28;20102;-77
2022/07/18 00:39:11;;;;;;;12.15;6.80;;;;;;;18.68;67.46;102332.69;4971465;28;20038;-78
2022/07/18 00:41:37;;;;;;;12.18;6.47;;;;;;;18.69;67.52;102331.63;4971410;28;20034;-77
2022/07/18 00:44:02;;;;;;;14.27;6.40;;;;;;;18.68;67.39;102335.41;4970250;28;20035;-78
2022/07/18 00:46:28;;;;;;;12.25;7.13;;;;;;;18.69;67.37;102328.91;4971496;28;20050;-78
2022/07/18 00:48:54;;;;;;;9.90;6.22;;;;;;;18.68;67.62;102332.69;4972922;28;20336;-76
2022/07/18 00:51:20;;;;;;;10.85;7.03;;;;;;;18.68;67.31;102338.13;4975513;28;20086;-77
2022/07/18 00:53:47;;;;;;;13.60;6.70;;;;;;;18.68;67.46;102332.69;4975328;28;20446;-77
2022/07/18 00:56:13;;;;;;;9.67;6.03;;;;;;;18.65;67.19;102329.31;4974616;28;20062;-76
2022/07/18 00:58:38;;;;;;;12.93;6.32;;;;;;;18.58;67.62;102322.13;4973723;28;20061;-77
2022/07/18 01:03:48;;;;;;;12.98;6.93;;;;;;;18.36;69.07;102310.44;4974717;28;20045;-77
2022/07/18 01:06:13;;;;;;;10.05;6.28;;;;;;;18.32;68.93;102311.84;4974308;28;20035;-77
2022/07/18 01:08:42;;;;;;;10.25;6.50;;;;;;;18.25;69.34;102300.06;4973593;28;20034;-77
2022/07/18 01:11:07;;;;;;;15.80;7.13;;;;;;;18.23;68.94;102303.00;4975015;28;20102;-77
2022/07/18 01:13:32;;;;;;;12.95;6.68;;;;;;;18.18;69.28;102310.91;4974787;28;20506;-77
2022/07/18 01:15:58;;;;;;;15.93;6.60;;;;;;;18.15;69.66;102317.59;4974563;28;20450;-78
2022/07/18 01:18:23;;;;;;;9.80;6.25;;;;;;;18.20;69.53;102320.56;4975205;28;20035;-79
2022/07/18 01:20:48;;;;;;;11.57;6.55;;;;;;;18.22;69.22;102317.66;4974364;28;20030;-77
2022/07/18 01:23:14;;;;;;;16.75;6.80;;;;;;;18.20;69.00;102322.47;4974287;28;20103;-78
2022/07/18 01:25:39;;;;;;;11.57;6.47;;;;;;;18.18;69.53;102328.09;4974970;28;20023;-78
2022/07/18 01:28:04;;;;;;;12.27;6.75;;;;;;;18.13;69.10;102316.94;4974181;28;20118;-77
2022/07/18 01:30:30;;;;;;;10.52;7.13;;;;;;;18.11;69.22;102319.00;4974819;28;20042;-77
2022/07/18 01:33:00;;;;;;;12.77;6.68;;;;;;;18.06;69.78;102307.88;4974478;28;20100;-77
2022/07/18 01:35:27;;;;;;;15.10;6.57;;;;;;;18.07;70.03;102314.16;4974242;28;20054;-77
2022/07/18 01:37:54;;;;;;;10.75;6.47;;;;;;;18.07;69.78;102314.16;4974220;28;20083;-77
2022/07/18 01:40:20;;;;;;;13.05;6.30;;;;;;;18.08;69.91;102316.69;4972948;28;20054;-77
2022/07/18 01:42:45;;;;;;;16.08;6.55;;;;;;;18.05;70.02;102311.63;4973892;28;20058;-76
2022/07/18 01:45:11;;;;;;;12.98;6.50;;;;;;;18.05;69.93;102305.34;4974139;28;20038;-77
2022/07/18 01:47:37;;;;;;;7.88;5.93;;;;;;;18.01;69.56;102304.91;4973956;28;20030;-78
2022/07/18 01:50:04;;;;;;;12.27;6.75;;;;;;;17.99;69.60;102306.97;4974343;28;20031;-78
2022/07/18 01:52:29;;;;;;;15.05;6.65;;;;;;;17.94;69.95;102304.81;4988620;28;20394;-77
2022/07/18 01:54:55;;;;;;;12.85;6.57;;;;;;;17.91;69.95;102307.94;4973805;28;20031;-76
2022/07/18 01:57:20;;;;;;;12.30;6.70;;;;;;;17.87;70.07;102303.06;4973823;28;20451;-77
2022/07/18 01:59:45;;;;;;;10.68;6.72;;;;;;;17.84;69.90;102304.31;4973898;28;20390;-78
2022/07/18 02:02:11;;;;;;;11.48;6.57;;;;;;;17.82;70.28;102295.47;4973895;28;20031;-78
2022/07/18 02:07:20;;;;;;;9.20;6.68;;;;;;;17.75;70.49;102280.94;4972823;28;20045;-76
2022/07/18 02:09:45;;;;;;;16.42;6.70;;;;;;;17.72;70.87;102284.91;4973815;28;20030;-76
2022/07/18 02:12:11;;;;;;;11.73;5.78;;;;;;;17.70;70.97;102280.69;4973685;28;20031;-79
2022/07/18 02:14:36;;;;;;;12.43;6.45;;;;;;;17.72;71.01;102282.19;4976048;28;20549;-77
2022/07/18 02:17:01;;;;;;;14.93;6.65;;;;;;;17.71;70.51;102283.19;4974910;28;20101;-77
2022/07/18 02:19:27;;;;;;;13.57;6.40;;;;;;;17.71;70.51;102277.75;4974090;28;20112;-77
2022/07/18 02:21:52;;;;;;;15.23;6.35;;;;;;;17.72;70.16;102271.28;4974118;28;20081;-77
2022/07/18 02:24:18;;;;;;;18.27;6.90;;;;;;;17.66;70.08;102261.16;4989536;28;20098;-79
2022/07/18 02:26:43;;;;;;;13.13;6.82;;;;;;;17.59;70.41;102268.44;4974303;28;20053;-77
2022/07/18 02:29:08;;;;;;;13.45;6.55;;;;;;;17.59;70.58;102264.84;4975441;28;20474;-78
2022/07/18 02:31:34;;;;;;;12.10;6.75;;;;;;;17.58;70.54;102258.56;4975281;28;20493;-77
2022/07/18 02:33:59;;;;;;;11.85;6.20;;;;;;;17.58;70.57;102257.72;5043808;23;20054;-79
2022/07/18 02:36:24;;;;;;;14.07;6.70;;;;;;;17.56;70.39;102255.19;5007731;28;20041;-78
2022/07/18 02:38:53;;;;;;;14.10;6.40;;;;;;;17.51;70.12;102260.41;5010199;28;20023;-78
2022/07/18 02:41:18;;;;;;;12.73;6.40;;;;;;;17.47;70.26;102257.19;4996699;28;20030;-78
2022/07/18 02:43:44;;;;;;;9.82;5.97;;;;;;;17.48;70.38;102255.31;5008347;28;20098;-78
2022/07/18 02:46:09;;;;;;;26.40;7.20;;;;;;;17.50;70.55;102259.53;5016255;28;20061;-78
2022/07/18 02:48:37;;;;;;;15.35;6.20;;;;;;;17.50;70.61;102250.53;5017125;28;20022;-77
2022/07/18 02:51:02;;;;;;;16.90;5.95;;;;;;;17.51;70.30;102252.22;5014428;28;20030;-77
2022/07/18 02:53:28;;;;;;;24.05;6.38;;;;;;;17.54;69.99;102251.84;4996233;28;20046;-77
2022/07/18 02:55:53;;;;;;;18.65;6.05;;;;;;;17.53;70.25;102253.69;4996249;28;20027;-78
2022/07/18 02:58:18;;;;;;;21.25;6.68;;;;;;;17.54;69.97;102249.13;4996776;28;20035;-78
2022/07/18 03:00:44;;;;;;;13.40;6.50;;;;;;;17.56;69.60;102255.19;4996166;28;20031;-77
2022/07/18 03:03:10;;;;;;;17.33;6.22;;;;;;;17.52;69.40;102253.91;4996451;28;20041;-78
2022/07/18 03:05:35;;;;;;;17.25;6.45;;;;;;;17.50;69.60;102253.25;4995653;28;20047;-78
2022/07/18 03:08:00;;;;;;;24.52;6.80;;;;;;;17.46;69.90;102243.81;4997821;28;20043;-78
2022/07/18 03:10:26;;;;;;;15.05;6.00;;;;;;;17.43;69.88;102241.44;5015462;28;20053;-78
2022/07/18 03:12:51;;;;;;;9.98;5.90;;;;;;;17.36;70.04;102246.00;5014362;28;20026;-78
2022/07/18 03:15:17;;;;;;;16.15;5.82;;;;;;;17.31;70.47;102239.22;5015785;28;20026;-79
2022/07/18 03:17:42;;;;;;;19.63;5.20;;;;;;;17.29;70.46;102230.41;5015616;28;20053;-78
2022/07/18 03:20:08;;;;;;;17.95;6.60;;;;;;;17.25;70.88;102229.13;5015262;28;20029;-78
2022/07/18 03:22:33;;;;;;;16.95;6.30;;;;;;;17.22;70.75;102234.09;5016103;28;20022;-79
2022/07/18 03:24:59;;;;;;;14.73;5.93;;;;;;;17.20;70.96;102226.13;5015930;28;20102;-79
2022/07/18 03:27:24;;;;;;;17.73;5.70;;;;;;;17.18;70.91;102221.94;5016931;28;20027;-79
2022/07/18 03:29:50;;;;;;;25.67;7.35;;;;;;;17.16;71.20;102222.09;5014309;28;20046;-78
2022/07/18 03:32:15;;;;;;;14.63;6.25;;;;;;;17.14;71.00;102221.47;5014863;28;20022;-78
2022/07/18 03:34:41;;;;;;;11.43;5.57;;;;;;;17.15;71.34;102219.59;5015038;28;20069;-78
2022/07/18 03:37:06;;;;;;;14.95;5.38;;;;;;;17.13;70.82;102214.34;5015453;28;20078;-78
2022/07/18 03:39:32;;;;;;;12.07;5.85;;;;;;;17.11;70.93;102232.72;5014412;28;20052;-78
2022/07/18 03:41:57;;;;;;;12.93;6.28;;;;;;;17.07;70.62;102221.38;5015699;28;20022;-78
2022/07/18 03:44:22;;;;;;;15.50;5.88;;;;;;;17.03;70.57;102213.78;4996772;28;20026;-78
2022/07/18 03:46:48;;;;;;;17.05;5.50;;;;;;;17.01;70.56;102215.84;4996574;28;20023;-77
2022/07/18 03:49:14;;;;;;;11.38;5.95;;;;;;;17.01;70.66;102204.97;4994469;28;20118;-77
2022/07/18 03:51:39;;;;;;;18.55;5.32;;;;;;;16.96;70.57;102202.84;4995714;28;20320;-77
2022/07/18 03:54:04;;;;;;;18.33;6.00;;;;;;;16.96;70.39;102202.84;4995123;28;20138;-77
2022/07/18 03:56:30;;;;;;;11.73;6.00;;;;;;;16.94;69.94;102202.19;4995748;28;20045;-78
2022/07/18 03:58:55;;;;;;;8.77;5.15;;;;;;;16.97;69.37;102200.97;4995582;28;20027;-79
2022/07/18 04:01:21;;;;;;;10.02;5.15;;;;;;;16.95;69.54;102194.88;4995902;28;20091;-79
2022/07/18 04:03:46;;;;;;;11.88;5.53;;;;;;;16.96;69.63;102202.00;4995824;28;20188;-79
2022/07/18 04:06:11;;;;;;;7.15;4.47;;;;;;;16.97;70.29;102200.97;4996601;28;20027;-79
2022/07/18 04:08:37;;;;;;;15.55;5.55;;;;;;;16.96;69.64;102202.00;4995135;28;20029;-78
2022/07/18 04:11:02;;;;;;;11.98;4.85;;;;;;;16.96;69.89;102196.56;5010931;28;20023;-78
2022/07/18 04:13:27;;;;;;;10.13;4.82;;;;;;;16.98;69.60;102194.47;4995030;28;20039;-78
2022/07/18 04:15:53;;;;;;;15.48;5.15;;;;;;;16.98;69.24;102208.94;4995664;28;20046;-78
2022/07/18 04:18:18;;;;;;;11.30;5.30;;;;;;;17.01;69.25;102207.69;4994409;28;20054;-78
2022/07/18 04:20:44;;;;;;;8.95;5.20;;;;;;;17.05;69.60;102201.69;4995589;28;20027;-79
2022/07/18 04:23:10;;;;;;;9.82;5.10;;;;;;;17.13;69.50;102198.00;4995579;28;20035;-79
2022/07/18 04:25:40;;;;;;;12.25;5.05;;;;;;;17.18;68.96;102198.28;5000380;28;20039;-79
2022/07/18 04:28:07;;;;;;;13.48;4.97;;;;;;;17.23;68.68;102197.72;4999599;28;20164;-79
2022/07/18 04:30:33;;;;;;;9.75;5.13;;;;;;;17.23;68.14;102195.81;4999157;28;20031;-79
2022/07/18 04:33:01;;;;;;;11.65;4.82;;;;;;;17.32;67.78;102197.41;4998993;28;20037;-79
2022/07/18 04:35:26;;;;;;;8.38;4.45;;;;;;;17.37;67.54;102194.06;4998869;28;20106;-78
2022/07/18 04:37:52;;;;;;;12.30;5.43;;;;;;;17.41;67.55;102192.66;4999323;28;20047;-79
2022/07/18 04:40:18;;;;;;;13.65;5.20;;;;;;;17.48;67.36;102198.16;4999395;28;20074;-79
2022/07/18 04:42:43;;;;;;;10.75;4.57;;;;;;;17.58;67.17;102206.00;4999361;28;20027;-76
2022/07/18 04:45:09;;;;;;;11.27;4.63;;;;;;;17.63;67.08;102204.38;4999815;28;20082;-77
2022/07/18 04:47:35;;;;;;;10.70;4.82;;;;;;;17.72;66.93;102207.78;4998470;28;20098;-78
2022/07/18 04:50:00;;;;;;;12.88;5.97;;;;;;;17.77;66.42;102200.75;4998954;28;20089;-78
2022/07/18 04:52:26;;;;;;;18.63;5.28;;;;;;;17.85;66.60;102209.81;4998896;28;20038;-78
2022/07/18 04:54:51;;;;;;;11.70;5.10;;;;;;;17.91;66.79;102206.34;4998851;28;20019;-78
2022/07/18 04:57:17;;;;;;;11.63;4.82;;;;;;;17.95;66.72;102207.59;4998841;28;20033;-78
2022/07/18 04:59:43;;;;;;;12.55;5.05;;;;;;;18.05;66.79;102212.72;4998751;28;20046;-78
2022/07/18 05:02:09;;;;;;;9.63;5.03;;;;;;;18.14;66.78;102215.09;4998487;28;20046;-77
2022/07/18 05:04:35;;;;;;;20.33;5.25;;;;;;;18.28;66.39;102217.91;4999574;28;20099;-78
2022/07/18 05:07:00;;;;;;;18.63;5.43;;;;;;;18.40;65.68;102211.72;4997933;28;20430;-78
2022/07/18 05:09:26;;;;;;;14.95;4.57;;;;;;;18.50;65.42;102213.22;4999613;28;20105;-77
2022/07/18 05:11:52;;;;;;;22.63;5.30;;;;;;;18.55;64.44;102208.84;4999280;28;20054;-78
2022/07/18 05:14:17;;;;;;;12.35;4.30;;;;;;;18.52;63.19;102206.53;4999024;28;20030;-77
2022/07/18 05:16:43;;;;;;;10.25;4.85;;;;;;;18.58;63.07;102205.69;4999378;28;20022;-78
2022/07/18 05:19:08;;;;;;;11.88;4.32;;;;;;;18.58;61.89;102202.97;4999338;28;20022;-78
2022/07/18 05:21:33;;;;;;;7.72;4.13;;;;;;;18.69;61.52;102211.63;4999113;28;20018;-77
2022/07/18 05:23:59;;;;;;;9.10;4.20;;;;;;;18.77;60.81;102208.75;4998354;28;20050;-78
2022/07/18 05:26:24;;;;;;;11.93;4.78;;;;;;;18.83;60.69;102211.53;4999056;28;20023;-77
2022/07/18 05:28:50;;;;;;;10.35;4.50;;;;;;;18.78;60.64;102213.19;4998295;28;20050;-78
2022/07/18 05:31:15;;;;;;;8.15;4.28;;;;;;;18.88;60.68;102210.06;5014568;28;20019;-78
2022/07/18 05:33:40;;;;;;;13.63;4.38;;;;;;;18.99;60.79;102204.88;5014472;28;20015;-78
2022/07/18 05:36:06;;;;;;;9.45;3.95;;;;;;;19.10;60.56;102205.34;4998128;28;20046;-77
2022/07/18 05:38:32;;;;;;;7.53;3.85;;;;;;;19.24;59.36;102199.69;5014147;28;20053;-78
2022/07/18 05:40:57;;;;;;;12.10;4.10;;;;;;;19.32;59.62;102198.66;4998528;28;20074;-77
2022/07/18 05:43:22;;;;;;;9.60;4.25;;;;;;;19.45;59.47;102195.09;4998768;28;20104;-77
2022/07/18 05:45:48;;;;;;;7.15;3.75;;;;;;;19.60;59.28;102194.91;4998727;28;20023;-78
2022/07/18 05:48:13;;;;;;;14.35;4.60;;;;;;;19.60;58.72;102189.47;4998987;28;20078;-78
2022/07/18 05:50:39;;;;;;;8.68;4.32;;;;;;;19.67;58.31;102179.41;4998643;28;20027;-79
2022/07/18 05:53:04;;;;;;;9.63;4.80;;;;;;;19.69;58.15;102178.13;4997486;28;20043;-76
2022/07/18 05:55:30;;;;;;;14.93;4.35;;;;;;;19.81;58.90;102175.63;4996132;28;20086;-77
2022/07/18 05:57:55;;;;;;;5.05;3.50;;;;;;;19.95;58.86;102182.75;5012713;28;20026;-79
2022/07/18 06:00:21;;;;;;;10.88;4.07;;;;;;;20.09;58.11;102180.00;5012955;28;20053;-78
2022/07/18 06:02:50;;;;;;;10.20;4.47;;;;;;;20.31;57.81;102180.59;4997899;28;20034;-78
2022/07/18 06:05:15;;;;;;;10.50;3.83;;;;;;;20.45;56.11;102181.38;4996236;28;20038;-78
2022/07/18 06:07:41;;;;;;;9.88;4.20;;;;;;;20.56;55.16;102173.41;4997277;28;20023;-79
2022/07/18 06:10:07;;;;;;;11.10;4.30;;;;;;;20.59;53.77;102178.44;4996436;28;20031;-77
2022/07/18 06:12:32;;;;;;;11.43;4.07;;;;;;;20.53;53.57;102178.41;4996999;28;20042;-76
2022/07/18 06:14:59;;;;;;;8.70;3.70;;;;;;;20.54;53.50;102180.16;4996716;28;20041;-77
2022/07/18 06:17:24;;;;;;;10.90;4.45;;;;;;;20.56;53.23;102178.00;4995701;28;20035;-76
2022/07/18 06:19:50;;;;;;;13.48;4.38;;;;;;;20.70;53.26;102171.44;4995674;28;20038;-77
2022/07/18 06:22:15;;;;;;;11.57;3.45;;;;;;;20.78;53.25;102171.19;4993634;28;20025;-77
2022/07/18 06:24:41;;;;;;;10.88;3.97;;;;;;;21.13;52.15;102178.16;4995003;28;20103;-77
2022/07/18 06:27:06;;;;;;;10.70;3.95;;;;;;;21.55;50.45;102175.81;4989453;28;20027;-77
2022/07/18 06:29:31;;;;;;;12.93;3.83;;;;;;;22.31;48.49;102170.03;4993398;28;20061;-76
2022/07/18 06:31:58;;;;;;;11.52;3.90;;;;;;;23.27;45.97;102185.94;4994462;28;20071;-77
2022/07/18 06:34:24;;;;;;;6.53;3.38;;;;;;;24.22;44.30;102172.06;4993896;28;20082;-77
2022/07/18 06:36:49;;;;;;;9.15;3.00;;;;;;;25.01;42.98;102179.75;4995576;28;20040;-77
2022/07/18 06:39:18;;;;;;;7.43;3.45;;;;;;;25.41;41.35;102176.13;4994221;28;20043;-77
2022/07/18 06:41:43;;;;;;;12.63;3.28;;;;;;;25.74;40.08;102174.47;4994450;28;20019;-76
2022/07/18 06:44:09;;;;;;;10.95;3.30;;;;;;;25.95;40.05;102176.47;4994621;28;20054;-77
2022/07/18 06:46:36;;;;;;;11.52;3.42;;;;;;;26.44;38.76;102184.91;4996268;28;20098;-76
2022/07/18 06:49:01;;;;;;;6.15;2.78;;;;;;;26.45;38.44;102182.97;4995248;28;20082;-77
2022/07/18 06:51:27;;;;;;;10.45;2.90;;;;;;;26.79;38.22;102183.69;4994327;28;20042;-76
2022/07/18 06:53:52;;;;;;;9.73;3.28;;;;;;;26.58;37.94;102181.78;4991184;28;20042;-76
2022/07/18 06:56:18;;;;;;;10.23;3.13;;;;;;;26.61;37.29;102176.56;4991275;28;20530;-76
2022/07/18 06:58:48;;;;;;;11.80;3.47;;;;;;;26.64;36.34;102172.47;4988921;28;20077;-77
2022/07/18 07:01:14;;;;;;;9.68;3.25;;;;;;;26.37;37.79;102158.56;4991323;28;20031;-75
2022/07/18 07:03:39;;;;;;;10.10;3.33;;;;;;;26.56;36.58;102165.47;4987340;28;20066;-75
2022/07/18 07:06:05;;;;;;;7.88;3.20;;;;;;;26.53;36.54;102170.66;4980046;28;20022;-75
2022/07/18 07:08:30;;;;;;;11.57;3.28;;;;;;;27.53;35.38;102165.66;5006312;28;20062;-77
2022/07/18 07:10:56;;;;;;;8.82;3.10;;;;;;;27.82;34.68;102168.13;5009291;28;20047;-77
2022/07/18 07:13:21;;;;;;;10.68;3.05;;;;;;;28.33;34.47;102165.63;4990649;28;20038;-77
2022/07/18 07:15:46;;;;;;;12.68;3.55;;;;;;;28.17;32.49;102173.03;4991256;28;20034;-78
2022/07/18 07:18:12;;;;;;;11.07;3.40;;;;;;;28.95;31.42;102162.00;5007812;28;20022;-78
2022/07/18 07:20:37;;;;;;;8.98;3.33;;;;;;;28.88;31.34;102167.81;4985307;28;20644;-77
2022/07/18 07:23:07;;;;;;;14.13;3.97;;;;;;;28.25;32.17;102169.75;4986184;28;20035;-78
2022/07/18 07:25:34;;;;;;;10.85;3.60;;;;;;;28.17;32.44;102165.59;4986695;28;20023;-78
2022/07/18 07:27:59;;;;;;;;;;;;;;;28.83;31.16;102159.50;4984410;28;20046;-77
2022/07/18 07:30:24;;;;;;;12.87;3.67;;;;;;;29.53;30.43;102159.84;4984012;28;19914;-76
2022/07/18 07:32:51;;;;;;;13.82;3.30;;;;;;;30.11;29.80;102162.28;4988443;28;20034;-77
2022/07/18 07:35:17;;;;;;;9.48;3.63;;;;;;;30.33;29.57;102173.09;4985498;28;20069;-77
2022/07/18 07:37:45;;;;;;;11.77;3.55;;;;;;;30.58;28.79;102169.38;4986682;28;20034;-77
2022/07/18 07:40:11;;;;;;;13.35;3.53;;;;;;;30.16;28.98;102169.78;4985124;28;20103;-77
2022/07/18 07:42:37;;;;;;;9.20;3.55;;;;;;;29.70;29.64;102173.50;4990603;28;20051;-79
2022/07/18 07:45:04;;;;;;;9.30;3.30;;;;;;;29.77;29.27;102175.13;4991255;28;20039;-79
2022/07/18 07:47:29;;;;;;;12.82;3.90;;;;;;;28.96;30.48;102165.59;4987141;28;20057;-77
2022/07/18 07:49:55;;;;;;;17.92;3.35;;;;;;;29.61;29.99;102171.50;4984101;28;20030;-78
2022/07/18 07:52:23;;;;;;;13.15;4.10;;;;;;;30.55;28.13;102164.38;4980952;28;20027;-78
2022/07/18 07:54:48;;;;;;;14.68;4.03;;;;;;;32.05;25.27;102171.34;4977696;28;20034;-78
2022/07/18 07:57:13;;;;;;;9.80;4.13;;;;;;;32.16;25.19;102166.50;4979100;28;20035;-77
2022/07/18 07:59:39;;;;;;;8.13;3.70;;;;;;;32.29;24.69;102164.94;4978446;28;20443;-77
2022/07/18 08:02:04;;;;;;;8.93;3.80;;;;;;;31.40;26.64;102168.06;4977823;28;20038;-78
2022/07/18 08:04:30;;;;;;;13.00;3.60;;;;;;;31.90;26.56;102158.38;4977711;28;20035;-78
2022/07/18 08:06:56;;;;;;;11.43;3.47;;;;;;;31.72;26.13;102161.91;4984852;28;20026;-78
2022/07/18 08:09:21;;;;;;;11.53;3.53;;;;;;;31.11;28.05;102157.69;4985204;28;20387;-79
2022/07/18 08:11:46;;;;;;;9.97;3.30;;;;;;;31.09;27.26;102153.53;4990383;28;20046;-78
2022/07/18 08:14:12;;;;;;;9.10;3.17;;;;;;;31.39;26.49;102158.06;4985872;28;20034;-77
2022/07/18 08:16:37;;;;;;;15.77;3.77;;;;;;;32.06;25.40;102150.72;4988447;28;20110;-79
2022/07/18 08:19:03;;;;;;;15.23;3.40;;;;;;;31.74;25.77;102145.75;4988515;28;20027;-78
2022/07/18 08:21:28;;;;;;;15.43;3.50;;;;;;;32.40;24.66;102140.56;4986788;28;20035;-78
2022/07/18 08:23:54;;;;;;;11.07;3.30;;;;;;;33.23;24.84;102147.50;4987266;28;20015;-77
2022/07/18 08:26:19;;;;;;;12.50;2.80;;;;;;;33.23;23.45;102151.13;4990089;28;20050;-78
2022/07/18 08:28:44;;;;;;;19.13;3.40;;;;;;;31.63;25.06;102153.38;4984989;28;20027;-79
2022/07/18 08:31:10;;;;;;;21.03;3.67;;;;;;;31.62;25.44;102148.91;4986160;28;20034;-78
2022/07/18 08:33:36;;;;;;;13.93;3.33;;;;;;;31.74;26.26;102142.97;4984631;28;20026;-78
2022/07/18 08:36:01;;;;;;;13.93;3.30;;;;;;;32.42;24.81;102146.69;4986097;28;20054;-77
2022/07/18 08:38:26;;;;;;;15.80;3.27;;;;;;;32.19;25.85;102149.19;4984508;28;20061;-78
2022/07/18 08:40:52;;;;;;;12.63;3.30;;;;;;;31.93;25.00;102155.03;4986909;28;20054;-79
2022/07/18 08:43:20;;;;;;;12.18;3.47;;;;;;;32.20;24.80;102150.00;4987236;28;20042;-78
2022/07/18 08:45:46;;;;;;;8.45;2.80;;;;;;;32.84;24.06;102150.59;4987941;28;20425;-77
2022/07/18 08:48:16;;;;;;;7.57;3.28;;;;;;;33.69;21.74;102155.09;5002886;28;20406;-77
2022/07/18 08:50:48;;;;;;;13.15;3.25;;;;;;;33.88;21.91;102155.81;4992562;28;20075;-76
2022/07/18 08:53:15;;;;;;;6.00;3.10;;;;;;;34.06;21.79;102144.91;4988884;28;20170;-77
2022/07/18 08:55:41;;;;;;;9.90;3.25;;;;;;;34.07;21.80;102157.72;4988528;28;20058;-78
2022/07/18 08:58:06;;;;;;;7.23;3.43;;;;;;;33.55;22.99;102157.03;4988699;28;20097;-77
2022/07/18 09:00:35;;;;;;;11.60;3.70;;;;;;;32.83;23.37;102154.50;4987317;28;20050;-76
2022/07/18 09:03:02;;;;;;;12.27;3.10;;;;;;;33.43;22.16;102152.72;4985430;28;20030;-77
2022/07/18 09:05:28;;;;;;;8.93;2.58;;;;;;;33.43;23.37;102144.34;4987030;28;20048;-78
2022/07/18 09:08:17;;;;;;;12.65;3.15;;;;;;;34.61;22.32;102158.88;4985131;28;20034;-78
2022/07/18 09:10:52;;;;;;;19.30;4.05;;;;;;;35.56;21.24;102152.38;4986706;28;20037;-78
2022/07/18 09:13:38;;;;;;;12.37;3.07;;;;;;;35.73;20.94;102160.91;4991588;28;20019;-78
2022/07/18 09:16:05;;;;;;;;;;;;;;;34.58;21.38;102151.09;4989501;28;20059;-78
2022/07/18 09:18:40;;;;;;;13.20;3.00;;;;;;;35.66;20.34;102151.31;4989399;28;19918;-79
2022/07/18 09:21:09;;;;;;;14.50;3.45;;;;;;;34.57;21.20;102146.63;5006737;28;20046;-78
2022/07/18 09:23:39;;;;;;;9.02;3.47;;;;;;;34.01;21.64;102150.56;4987813;28;20114;-78
2022/07/18 09:26:05;;;;;;;9.68;3.22;;;;;;;34.80;21.30;102143.91;4990828;28;20030;-78
2022/07/18 09:28:51;;;;;;;8.35;3.28;;;;;;;34.18;22.19;102142.44;4991526;28;20082;-77
2022/07/18 09:31:21;;;;;;;10.98;3.17;;;;;;;34.56;22.83;102133.78;4988121;28;20443;-79
2022/07/18 09:33:57;;;;;;;9.07;3.40;;;;;;;35.44;21.63;102133.34;4986724;28;20023;-77
2022/07/18 09:36:23;;;;;;;11.70;3.17;;;;;;;36.29;20.03;102146.50;5006060;28;20077;-78
2022/07/18 09:38:49;;;;;;;12.95;4.03;;;;;;;36.28;20.43;102128.81;4991139;28;20062;-78
2022/07/18 09:41:15;;;;;;;13.68;3.85;;;;;;;35.96;20.19;102132.81;4991218;28;20039;-78
2022/07/18 09:43:40;;;;;;;18.15;3.95;;;;;;;36.17;20.09;102133.09;4988990;28;20045;-78
2022/07/18 09:46:07;;;;;;;6.50;3.30;;;;;;;36.44;20.10;102127.22;4989582;28;20051;-78
2022/07/18 09:48:32;;;;;;;;;;;;;;;36.87;19.90;102128.44;4989620;28;20083;-79
2022/07/18 09:51:00;;;;;;;;;;;;;;;36.90;19.24;102127.75;4987188;28;19914;-78
2022/07/18 09:53:27;;;;;;;10.23;3.08;;;;;;;37.37;18.75;102129.88;4985822;28;19962;-78
2022/07/18 09:56:01;;;;;;;8.15;2.90;;;;;;;37.97;18.69;102128.88;4989614;28;20030;-79
2022/07/18 09:58:28;;;;;;;8.77;2.70;;;;;;;37.39;18.22;102130.34;4986848;28;20087;-80
2022/07/18 10:00:56;;;;;;;7.28;2.53;;;;;;;35.90;19.59;102126.53;4986311;28;20438;-77
2022/07/18 10:03:22;;;;;;;6.20;3.08;;;;;;;35.86;16.20;102128.31;4991356;28;20112;-79
2022/07/18 10:05:49;;;;;;;10.75;2.75;;;;;;;35.57;16.91;102129.72;4992162;28;20035;-77
2022/07/18 10:08:17;;;;;;;9.52;3.42;;;;;;;35.89;18.19;102122.09;5001615;28;20404;-78
2022/07/18 10:10:47;;;;;;;6.05;3.40;;;;;;;36.35;17.36;102133.97;4990206;28;20023;-78
2022/07/18 10:13:13;;;;;;;5.10;3.10;;;;;;;36.84;15.07;102123.50;4987743;28;20031;-78
2022/07/18 10:15:40;;;;;;;4.93;3.03;;;;;;;37.11;15.05;102117.53;4985201;28;20042;-77
2022/07/18 10:18:09;;;;;;;7.00;3.15;;;;;;;36.85;16.07;102119.50;4988920;28;20033;-78
2022/07/18 10:20:40;;;;;;;9.05;2.88;;;;;;;37.27;14.53;102115.03;4984649;28;20041;-78
2022/07/18 10:23:13;;;;;;;12.07;3.20;;;;;;;37.46;15.63;102122.25;4985930;28;20054;-79
2022/07/18 10:25:39;;;;;;;10.75;3.40;;;;;;;36.55;16.64;102121.31;4989076;28;20138;-78
2022/07/18 10:28:10;;;;;;;7.00;2.70;;;;;;;37.01;16.62;102125.44;4987367;28;20030;-78
2022/07/18 10:30:44;;;;;;;10.57;3.28;;;;;;;36.65;16.63;102123.78;4987189;28;20050;-79
2022/07/18 10:33:38;;;;;;;9.45;3.25;;;;;;;36.83;15.50;102116.22;4982406;28;20082;-79
2022/07/18 10:36:06;;;;;;;9.95;3.47;;;;;;;37.10;14.76;102120.66;4983282;28;20368;-78
2022/07/18 10:38:33;;;;;;;4.93;3.50;;;;;;;37.46;15.89;102116.63;4998155;28;20030;-78
2022/07/18 10:41:14;;;;;;;12.85;3.85;;;;;;;36.51;15.77;102121.13;4987737;28;20035;-80
2022/07/18 10:43:41;;;;;;;9.50;3.88;;;;;;;35.92;16.50;102113.03;4990478;28;20062;-79
2022/07/18 10:46:08;;;;;;;10.38;3.47;;;;;;;36.23;16.48;102118.59;4982816;28;20031;-78
2022/07/18 10:48:34;;;;;;;8.23;3.35;;;;;;;36.04;16.49;102107.63;4984059;28;20053;-78
2022/07/18 10:51:01;;;;;;;6.43;3.33;;;;;;;36.12;16.98;102103.22;4989042;28;20026;-79
2022/07/18 10:54:03;;;;;;;12.98;3.65;;;;;;;35.96;16.80;102104.81;4985686;28;20030;-78
2022/07/18 10:56:28;;;;;;;7.20;3.28;;;;;;;36.55;15.70;102110.94;4979176;28;20477;-77
2022/07/18 10:58:57;;;;;;;9.03;3.50;;;;;;;37.40;16.09;102113.19;4977681;28;20092;-78
2022/07/18 11:01:23;;;;;;;6.80;3.72;;;;;;;37.72;15.87;102120.19;4981542;28;20062;-80
2022/07/18 11:03:49;;;;;;;;;;;;;;;37.37;15.68;102113.03;4980865;28;20110;-77
2022/07/18 11:06:14;;;;;;;;;;;;;;;37.09;15.61;102113.41;4985995;28;19969;-80
2022/07/18 11:08:39;;;;;;;6.97;3.47;;;;;;;36.38;16.15;102105.25;4987348;28;19918;-79
2022/07/18 11:11:06;;;;;;;9.07;3.87;;;;;;;36.09;16.59;102103.88;4988049;28;20031;-79
2022/07/18 11:13:35;;;;;;;;;;;;;;;36.01;16.98;102105.47;4986951;28;20042;-79
2022/07/18 11:16:16;;;;;;;9.20;3.60;;;;;;;35.69;16.64;102106.69;4988243;28;19921;-78
2022/07/18 11:18:43;;;;;;;11.48;3.40;;;;;;;35.96;17.05;102100.03;4989040;28;20045;-79
2022/07/18 11:21:22;;;;;;;9.48;4.15;;;;;;;36.98;16.43;102096.06;4986149;28;20030;-78
2022/07/18 11:23:49;;;;;;;8.77;4.45;;;;;;;37.44;16.15;102096.47;4993707;28;20095;-78